Archival Weather

Chicago O'Hare International

Chicago, Illinois (KORD)

Report from: Saturday, December 31, 2022 2:51 PM CST
Current time: Friday, April 19, 2024 4:42 AM CDT

Current weather – Weather history – Daily summaries
Weather forecast

Temperature3.3°C (37.9°F)
Wind chill1.3°C (34.4°F)
Dew point-3.9°C (25.0°F)
Winds 4 kts (2.1 m/s, 4.6 mph) South (190°)
Visibility10 mi. (16.1 km)
Clouds Scattered clouds 9,500 ft. (2,896 m)
Ceiling: Broken clouds 17,000 ft. (5,182 m)
Broken clouds 25,000 ft. (7,620 m)
Altimeter29.88 in.Hg (1012 mB)
Relative humidity59 %
Density altitude-1,324 ft. (-404 m)
Sea-level pressure101.3 kPa (1013 mB, 29.90 in.Hg)
Remarks Automated weather observing station with precipitation discriminator
Pressure falling, then rising
Flight conditions Visual Meteorological Conditions
Raw dataKORD 312051Z 19004KT 10SM SCT095 BKN170 BKN250 03/M04 A2988 RMK AO2 SLP126 T00331039 55010
An error has occurred. This application may no longer respond until reloaded. Reload 🗙